createdAt,value
2019-05-14T00:00:46.222Z,30.00
2019-05-14T00:05:51.979Z,34.43
2019-05-14T00:10:56.575Z,31.55
2019-05-14T00:16:01.483Z,36.83
2019-05-14T00:21:06.134Z,33.40
2019-05-14T00:26:12.163Z,36.70
2019-05-14T00:31:16.751Z,36.80
2019-05-14T00:36:21.673Z,38.55
2019-05-14T00:41:26.188Z,34.92
2019-05-14T00:46:31.575Z,33.40
2019-05-14T00:51:36.138Z,32.73
2019-05-14T00:56:41.708Z,31.35
2019-05-14T01:01:46.436Z,32.50
2019-05-14T01:06:51.265Z,30.80
2019-05-14T01:11:55.975Z,31.73
2019-05-14T01:17:02.097Z,29.77
2019-05-14T01:22:07.022Z,27.42
2019-05-14T01:27:12.371Z,30.65
2019-05-14T01:32:17.449Z,28.27
2019-05-14T01:37:22.122Z,26.97
2019-05-14T01:42:26.884Z,26.68
2019-05-14T01:47:31.901Z,25.85
2019-05-14T01:52:36.624Z,28.25
2019-05-14T01:57:42.536Z,23.83
2019-05-14T02:02:48.175Z,24.47
2019-05-14T02:07:52.776Z,22.60
2019-05-14T02:12:58.347Z,28.12
2019-05-14T02:18:02.912Z,25.97
2019-05-14T02:23:07.611Z,26.80
2019-05-14T02:28:12.233Z,24.77
2019-05-14T02:33:19.179Z,26.23
2019-05-14T02:38:22.951Z,26.35
2019-05-14T02:43:29.269Z,29.05
2019-05-14T02:48:33.972Z,29.85
2019-05-14T02:53:39.216Z,30.70
2019-05-14T02:58:43.858Z,31.33
2019-05-14T03:03:49.588Z,32.20
2019-05-14T03:08:54.371Z,30.02
2019-05-14T03:13:59.956Z,36.60
2019-05-14T03:19:04.681Z,32.03
2019-05-14T03:24:09.777Z,33.75
2019-05-14T03:29:14.402Z,36.80
2019-05-14T03:34:22.320Z,40.28
2019-05-14T03:39:25.451Z,34.20
2019-05-14T03:44:30.233Z,35.20
2019-05-14T03:49:34.886Z,44.75
2019-05-14T03:54:41.039Z,46.10
2019-05-14T03:59:46.019Z,48.38
2019-05-14T04:04:50.758Z,35.23
2019-05-14T04:09:59.531Z,37.55
2019-05-14T04:15:05.464Z,42.45
2019-05-14T04:20:10.382Z,31.33
2019-05-14T04:25:14.997Z,41.15
2019-05-14T04:30:23.913Z,35.80
2019-05-14T04:35:29.460Z,35.63
2019-05-14T04:40:32.660Z,36.58
2019-05-14T04:45:39.526Z,43.60
2019-05-14T04:50:43.716Z,39.70
2019-05-14T04:55:49.508Z,39.25
2019-05-14T05:00:55.343Z,49.10
2019-05-14T05:05:59.959Z,39.03
2019-05-14T05:11:09.106Z,45.92
2019-05-14T05:16:12.435Z,41.65
2019-05-14T05:21:19.105Z,43.87
2019-05-14T05:26:23.384Z,38.58
2019-05-14T05:31:29.127Z,36.38
2019-05-14T05:36:35.307Z,37.03
2019-05-14T05:41:40.042Z,41.90
2019-05-14T05:46:44.581Z,39.98
2019-05-14T05:51:49.472Z,38.30
2019-05-14T05:56:53.949Z,35.70
2019-05-14T06:01:58.996Z,39.58
2019-05-14T06:07:08.855Z,36.90
2019-05-14T06:12:13.268Z,36.77
2019-05-14T06:17:19.227Z,36.93
2019-05-14T06:22:24.030Z,37.78
2019-05-14T06:27:28.926Z,36.10
2019-05-14T06:32:33.554Z,32.45
2019-05-14T06:37:38.638Z,33.85
2019-05-14T06:42:43.565Z,30.60
2019-05-14T06:47:48.755Z,34.23
2019-05-14T06:52:53.591Z,31.50
2019-05-14T06:57:58.577Z,28.02
2019-05-14T07:03:03.344Z,25.45
2019-05-14T07:08:08.923Z,28.30
2019-05-14T07:13:13.739Z,27.30
2019-05-14T07:18:19.054Z,31.70
2019-05-14T07:23:23.789Z,26.00
2019-05-14T07:28:28.993Z,30.82
2019-05-14T07:33:33.648Z,30.17
2019-05-14T07:38:39.103Z,29.27
2019-05-14T07:43:43.915Z,30.12
2019-05-14T07:49:03.448Z,34.38
2019-05-14T07:53:54.695Z,30.88
2019-05-14T07:59:02.110Z,28.35
2019-05-14T08:04:05.828Z,31.85
2019-05-14T08:09:10.561Z,27.37
2019-05-14T08:14:15.256Z,25.72
2019-05-14T08:19:26.828Z,31.55
2019-05-14T08:24:27.104Z,28.55
2019-05-14T08:29:32.510Z,28.27
2019-05-14T08:34:38.986Z,42.17
2019-05-14T08:39:43.443Z,25.37
2019-05-14T08:44:51.194Z,22.58
2019-05-14T08:49:54.338Z,27.07
2019-05-14T08:55:07.021Z,18.67
2019-05-14T09:00:13.495Z,20.37
2019-05-14T09:05:13.755Z,23.18
2019-05-14T09:10:19.408Z,23.35
2019-05-14T09:15:24.451Z,21.42
2019-05-14T09:20:29.208Z,21.80
2019-05-14T09:25:34.110Z,21.33
2019-05-14T09:30:38.879Z,24.98
2019-05-14T09:35:43.593Z,20.65
2019-05-14T09:40:49.035Z,22.45
2019-05-14T09:45:54.836Z,23.80
2019-05-14T09:50:59.572Z,26.68
2019-05-14T09:56:04.243Z,24.90
2019-05-14T10:01:08.957Z,24.40
2019-05-14T10:06:13.586Z,26.33
2019-05-14T10:11:18.588Z,25.02
2019-05-14T10:16:23.176Z,21.82
2019-05-14T10:21:29.265Z,21.27
2019-05-14T10:26:34.241Z,22.85
2019-05-14T10:31:39.961Z,21.97
2019-05-14T10:36:44.647Z,22.00
2019-05-14T10:41:49.364Z,26.23
2019-05-14T10:46:58.272Z,23.98
2019-05-14T10:52:03.166Z,26.12
2019-05-14T10:57:09.675Z,23.95
2019-05-14T11:02:18.411Z,19.30
2019-05-14T11:07:22.048Z,22.48
2019-05-14T11:12:29.467Z,22.40
2019-05-14T11:17:33.273Z,24.75
2019-05-14T11:22:37.951Z,22.70
2019-05-14T11:27:42.504Z,22.45
2019-05-14T11:32:49.241Z,22.20
2019-05-14T11:37:53.612Z,23.30
2019-05-14T11:42:59.171Z,23.42
2019-05-14T11:48:04.249Z,19.90
2019-05-14T11:53:20.110Z,19.90
2019-05-14T11:58:23.308Z,17.90
2019-05-14T12:03:28.616Z,21.15
2019-05-14T12:08:33.531Z,26.48
2019-05-14T12:13:39.495Z,20.57
2019-05-14T12:18:44.427Z,21.90
2019-05-14T12:23:49.415Z,21.77
2019-05-14T12:28:56.066Z,23.65
2019-05-14T12:34:00.603Z,24.57
2019-05-14T12:39:09.674Z,24.25
2019-05-14T12:44:14.260Z,21.45
2019-05-14T12:49:19.007Z,22.95
2019-05-14T12:54:23.757Z,17.95
2019-05-14T12:59:28.664Z,16.30
2019-05-14T13:04:33.528Z,16.12
2019-05-14T13:09:38.628Z,14.90
2019-05-14T13:14:43.395Z,13.35
2019-05-14T13:19:48.790Z,16.80
2019-05-14T13:24:53.455Z,14.75
2019-05-14T13:29:59.190Z,12.82
2019-05-14T13:35:09.557Z,9.60
2019-05-14T13:40:13.889Z,13.68
2019-05-14T13:45:19.311Z,11.90
2019-05-14T13:50:24.191Z,16.50
2019-05-14T13:55:30.710Z,14.68
2019-05-14T14:00:35.371Z,12.65
2019-05-14T14:05:40.671Z,20.15
2019-05-14T14:10:52.281Z,17.07
2019-05-14T14:15:51.799Z,17.90
2019-05-14T14:20:56.506Z,17.23
2019-05-14T14:26:01.212Z,19.75
2019-05-14T14:31:11.029Z,15.78
2019-05-14T14:36:14.898Z,15.28
2019-05-14T14:41:19.828Z,12.73
2019-05-14T14:46:24.478Z,18.67
2019-05-14T14:51:30.530Z,14.93
2019-05-14T14:56:35.310Z,22.75
2019-05-14T15:01:40.594Z,17.27
2019-05-14T15:06:45.413Z,20.97
2019-05-14T15:11:50.162Z,20.88
2019-05-14T15:16:54.766Z,22.55
2019-05-14T15:21:59.447Z,17.70
2019-05-14T15:27:08.889Z,21.00
2019-05-14T15:32:11.728Z,26.52
2019-05-14T15:37:18.888Z,23.70
2019-05-14T15:42:22.867Z,26.85
2019-05-14T15:47:29.713Z,24.45
2019-05-14T15:52:33.912Z,19.42
2019-05-14T15:57:39.761Z,23.30
2019-05-14T16:02:44.884Z,25.37
2019-05-14T16:07:49.719Z,28.62
2019-05-14T16:12:54.394Z,25.60
2019-05-14T16:18:08.303Z,26.70
2019-05-14T16:23:05.751Z,29.82
2019-05-14T16:28:10.535Z,27.70
2019-05-14T16:33:15.261Z,25.72
2019-05-14T16:38:23.029Z,32.35
2019-05-14T16:43:31.486Z,27.95
2019-05-14T16:48:32.818Z,32.67
2019-05-14T16:53:38.029Z,25.68
2019-05-14T16:58:42.828Z,26.33
2019-05-14T17:03:49.253Z,31.42
2019-05-14T17:08:56.473Z,19.00
2019-05-14T17:14:01.270Z,22.22
2019-05-14T17:19:09.127Z,23.73
2019-05-14T17:24:13.291Z,23.62
2019-05-14T17:29:19.195Z,21.85
2019-05-14T17:34:23.990Z,24.67
2019-05-14T17:39:28.745Z,25.77
2019-05-14T17:44:33.472Z,25.48
2019-05-14T17:49:39.118Z,23.65
2019-05-14T17:54:44.066Z,24.65
2019-05-14T17:59:49.555Z,25.62
2019-05-14T18:04:58.689Z,23.62
2019-05-14T18:10:02.037Z,24.55
2019-05-14T18:15:09.022Z,28.42
2019-05-14T18:20:14.021Z,24.82
2019-05-14T18:25:21.584Z,27.65
2019-05-14T18:30:28.777Z,30.35
2019-05-14T18:35:33.043Z,31.73
2019-05-14T18:40:39.757Z,35.43
2019-05-14T18:45:44.378Z,31.90
2019-05-14T18:50:49.591Z,34.55
2019-05-14T18:55:54.390Z,38.08
2019-05-14T19:00:59.300Z,38.63
2019-05-14T19:06:04.229Z,36.77
2019-05-14T19:11:10.029Z,44.10
2019-05-14T19:16:14.655Z,44.53
2019-05-14T19:21:19.449Z,43.20
2019-05-14T19:26:33.477Z,38.58
2019-05-14T19:31:30.408Z,41.20
2019-05-14T19:36:35.078Z,43.80
2019-05-14T19:41:39.654Z,48.15
2019-05-14T19:46:44.326Z,42.67
2019-05-14T19:51:49.168Z,45.45
2019-05-14T19:56:57.488Z,38.92
2019-05-14T20:02:00.229Z,42.38
2019-05-14T20:07:04.997Z,39.08
2019-05-14T20:12:09.765Z,35.30
2019-05-14T20:17:14.474Z,36.10
2019-05-14T20:22:19.235Z,29.40
2019-05-14T20:27:23.833Z,30.35
2019-05-14T20:32:29.916Z,36.28
2019-05-14T20:37:34.733Z,29.57
2019-05-14T20:42:39.595Z,25.17
2019-05-14T20:47:44.356Z,12.93
2019-05-14T20:52:49.090Z,6.30
2019-05-14T20:57:53.739Z,4.17
2019-05-14T21:02:59.646Z,2.95
2019-05-14T21:08:04.624Z,2.52
2019-05-14T21:13:09.641Z,2.02
2019-05-14T21:18:14.435Z,0.70
2019-05-14T21:23:19.384Z,2.55
2019-05-14T21:28:24.076Z,2.42
2019-05-14T21:33:30.334Z,2.90
2019-05-14T21:38:35.098Z,2.55
2019-05-14T21:43:39.593Z,2.00
2019-05-14T21:48:44.248Z,1.52
2019-05-14T21:53:48.941Z,0.80
2019-05-14T21:58:53.577Z,1.92
2019-05-14T22:03:59.267Z,3.08
2019-05-14T22:09:05.737Z,1.35
2019-05-14T22:14:10.800Z,1.37
2019-05-14T22:19:15.319Z,1.07
2019-05-14T22:24:21.136Z,1.17
2019-05-14T22:29:25.856Z,1.75
2019-05-14T22:34:30.442Z,1.57
2019-05-14T22:39:35.037Z,1.27
2019-05-14T22:44:39.825Z,0.90
2019-05-14T22:49:44.390Z,1.32
2019-05-14T22:54:49.121Z,0.72
2019-05-14T22:59:54.805Z,0.28
2019-05-14T23:04:59.290Z,0.35
2019-05-14T23:10:04.686Z,0.85
2019-05-14T23:15:09.569Z,1.07
2019-05-14T23:20:14.233Z,0.53
2019-05-14T23:25:18.878Z,2.05
2019-05-14T23:30:33.747Z,1.17
2019-05-14T23:35:39.136Z,0.50
2019-05-14T23:40:43.882Z,1.35
2019-05-14T23:45:48.508Z,0.50
2019-05-14T23:50:53.183Z,0.72
2019-05-14T23:55:57.832Z,2.20
